Pagina principale
METAR-TAF:

METAR-TAF

Aeroporti :

Harriman-and-West Airport

North Adams, Massachusetts, Stati Uniti

latitudine: 42-41-50N, longitudine: 073-10-13W, altezza: 199 m

Osservazione

Il bollettino è stato emesso 21 minuti fa, alle 06:32 UTC
Vento 4 kt da est
Temperature 21°C
Umidità 88%
Pressione 1013 hPa
Visibilità: 16.1 km
Poco nuvoloso ad un'altezza di 1700 ft
Nuvoloso ad un'altezza di 3900 ft
Cielo coperto ad un'altezza di 4900 ft
pioggia debole

METAR: KAQW 140632Z AUTO 09004KT 10SM -RA FEW017 BKN039 OVC049 21/19 A2990 RMK AO2 P0000 T02060194

Ora: 02:53 (06:53 UTC)


TAF: mancante

Osservazioni e previsioni meteorologiche di più di 4000 aeroporti (messaggi METAR e TAF).

Le stazioni disponibili sono rappresentate dai dischi gialli e rossi sulla carta.

Puntare il mouse per vedere il nome della stazione.

Clicca sopra per visualizzare le osservazioni e previsioni meteorologiche.

Per cambiare la mappa : fare clic sui pulsanti verdi con una croce nera per ingrandire, il pulsante verde con un trattino per diminuire, o sulla freccia verde per le mappe adiacenti.


METAR-TAF: